Terminal Aerodrome Forecast
Issued by NWS Charleston, WV

Current Version | Previous Version | Graphics & Text | Print | Product List | Glossary On
Versions: 1 2 3 4 5 6 7 8 9 10 11 12 13 14 15 16 17 18 19 20 21 22 23 24 25
899
FTUS41 KRLX 300222 AAA
TAFHTS
TAF AMD
KHTS 300222Z 3002/3024 34007KT P6SM BKN250
     FM300600 03004KT P6SM BKN110
     FM301400 07004KT P6SM OVC045
     FM301900 08007KT 6SM SHRA BR OVC030
     FM302100 10005KT 4SM SHRA HZ BKN025=

USA.gov is the U.S. government's official web portal to all federal, state and local government web resources and services.